sensor_id;sensor_type;location;lat;lon;timestamp;temperature;humidity
57410;DHT22;46044;44.738;20.394;2022-09-20T00:01:12;9.00;88.00
57410;DHT22;46044;44.738;20.394;2022-09-20T00:03:40;9.00;88.00
57410;DHT22;46044;44.738;20.394;2022-09-20T00:06:16;9.00;88.00
57410;DHT22;46044;44.738;20.394;2022-09-20T00:08:43;9.00;88.00
57410;DHT22;46044;44.738;20.394;2022-09-20T00:11:13;9.00;88.00
57410;DHT22;46044;44.738;20.394;2022-09-20T00:13:41;9.00;88.00
57410;DHT22;46044;44.738;20.394;2022-09-20T00:16:11;9.00;88.00
57410;DHT22;46044;44.738;20.394;2022-09-20T00:18:37;9.00;88.00
57410;DHT22;46044;44.738;20.394;2022-09-20T00:21:04;9.00;88.00
57410;DHT22;46044;44.738;20.394;2022-09-20T00:23:30;9.00;88.00
57410;DHT22;46044;44.738;20.394;2022-09-20T00:26:02;9.00;88.00
57410;DHT22;46044;44.738;20.394;2022-09-20T00:28:29;9.00;88.00
57410;DHT22;46044;44.738;20.394;2022-09-20T00:30:56;9.00;88.00
57410;DHT22;46044;44.738;20.394;2022-09-20T00:33:23;9.00;88.00
57410;DHT22;46044;44.738;20.394;2022-09-20T00:36:09;9.00;88.00
57410;DHT22;46044;44.738;20.394;2022-09-20T00:38:35;9.00;88.00
57410;DHT22;46044;44.738;20.394;2022-09-20T00:41:01;9.00;88.00
57410;DHT22;46044;44.738;20.394;2022-09-20T00:43:39;9.00;88.00
57410;DHT22;46044;44.738;20.394;2022-09-20T00:46:20;9.00;88.00
57410;DHT22;46044;44.738;20.394;2022-09-20T00:48:53;9.00;88.00
57410;DHT22;46044;44.738;20.394;2022-09-20T00:51:27;9.00;88.00
57410;DHT22;46044;44.738;20.394;2022-09-20T00:53:58;9.00;88.00
57410;DHT22;46044;44.738;20.394;2022-09-20T00:56:28;9.00;88.00
57410;DHT22;46044;44.738;20.394;2022-09-20T00:59:20;9.00;88.00
57410;DHT22;46044;44.738;20.394;2022-09-20T01:01:51;9.00;88.00
57410;DHT22;46044;44.738;20.394;2022-09-20T01:04:20;9.00;88.00
57410;DHT22;46044;44.738;20.394;2022-09-20T01:06:50;9.00;88.00
57410;DHT22;46044;44.738;20.394;2022-09-20T01:09:17;9.00;88.00
57410;DHT22;46044;44.738;20.394;2022-09-20T01:11:43;9.00;88.00
57410;DHT22;46044;44.738;20.394;2022-09-20T01:14:12;9.00;88.00
57410;DHT22;46044;44.738;20.394;2022-09-20T01:16:39;9.00;88.00
57410;DHT22;46044;44.738;20.394;2022-09-20T01:19:18;9.00;88.00
57410;DHT22;46044;44.738;20.394;2022-09-20T01:21:47;9.00;88.00
57410;DHT22;46044;44.738;20.394;2022-09-20T01:24:25;9.00;88.00
57410;DHT22;46044;44.738;20.394;2022-09-20T01:27:39;9.00;88.00
57410;DHT22;46044;44.738;20.394;2022-09-20T01:30:14;9.00;88.00
57410;DHT22;46044;44.738;20.394;2022-09-20T01:35:46;9.00;88.00
57410;DHT22;46044;44.738;20.394;2022-09-20T01:46:29;9.00;88.00
57410;DHT22;46044;44.738;20.394;2022-09-20T02:01:03;9.00;88.00
57410;DHT22;46044;44.738;20.394;2022-09-20T02:03:52;9.00;88.00
57410;DHT22;46044;44.738;20.394;2022-09-20T02:09:40;9.00;88.00
57410;DHT22;46044;44.738;20.394;2022-09-20T02:31:43;9.00;88.00
57410;DHT22;46044;44.738;20.394;2022-09-20T02:42:20;9.00;88.00
57410;DHT22;46044;44.738;20.394;2022-09-20T02:44:58;9.00;88.00
57410;DHT22;46044;44.738;20.394;2022-09-20T02:47:38;9.00;88.00
57410;DHT22;46044;44.738;20.394;2022-09-20T02:53:06;9.00;88.00
57410;DHT22;46044;44.738;20.394;2022-09-20T02:59:10;9.00;88.00
57410;DHT22;46044;44.738;20.394;2022-09-20T03:02:03;9.00;88.00
57410;DHT22;46044;44.738;20.394;2022-09-20T03:04:34;9.00;88.00
57410;DHT22;46044;44.738;20.394;2022-09-20T03:13:13;9.00;88.00
57410;DHT22;46044;44.738;20.394;2022-09-20T03:16:03;9.00;88.00
57410;DHT22;46044;44.738;20.394;2022-09-20T03:27:40;9.00;88.00
57410;DHT22;46044;44.738;20.394;2022-09-20T03:41:18;9.00;88.00
57410;DHT22;46044;44.738;20.394;2022-09-20T03:51:28;10.00;88.00
57410;DHT22;46044;44.738;20.394;2022-09-20T04:00:14;10.00;88.00
57410;DHT22;46044;44.738;20.394;2022-09-20T04:08:37;10.00;88.00
57410;DHT22;46044;44.738;20.394;2022-09-20T04:11:40;10.00;88.00
57410;DHT22;46044;44.738;20.394;2022-09-20T04:22:55;10.00;88.00
57410;DHT22;46044;44.738;20.394;2022-09-20T04:25:34;10.00;88.00
57410;DHT22;46044;44.738;20.394;2022-09-20T04:28:10;10.00;88.00
57410;DHT22;46044;44.738;20.394;2022-09-20T04:30:39;10.00;88.00
57410;DHT22;46044;44.738;20.394;2022-09-20T04:33:27;10.00;88.00
57410;DHT22;46044;44.738;20.394;2022-09-20T04:36:22;10.00;88.00
57410;DHT22;46044;44.738;20.394;2022-09-20T04:56:19;10.00;88.00
57410;DHT22;46044;44.738;20.394;2022-09-20T04:58:47;10.00;88.00
57410;DHT22;46044;44.738;20.394;2022-09-20T05:18:23;11.00;89.00
57410;DHT22;46044;44.738;20.394;2022-09-20T05:23:50;11.00;89.00
57410;DHT22;46044;44.738;20.394;2022-09-20T05:26:43;11.00;89.00
57410;DHT22;46044;44.738;20.394;2022-09-20T05:32:02;11.00;89.00
57410;DHT22;46044;44.738;20.394;2022-09-20T05:34:38;11.00;89.00
57410;DHT22;46044;44.738;20.394;2022-09-20T05:40:15;11.00;89.00
57410;DHT22;46044;44.738;20.394;2022-09-20T05:49:19;11.00;89.00
57410;DHT22;46044;44.738;20.394;2022-09-20T05:52:04;11.00;89.00
57410;DHT22;46044;44.738;20.394;2022-09-20T05:57:27;11.00;89.00
57410;DHT22;46044;44.738;20.394;2022-09-20T06:16:01;12.00;90.00
57410;DHT22;46044;44.738;20.394;2022-09-20T06:19:04;12.00;90.00
57410;DHT22;46044;44.738;20.394;2022-09-20T06:21:53;12.00;90.00
57410;DHT22;46044;44.738;20.394;2022-09-20T06:24:42;12.00;90.00
57410;DHT22;46044;44.738;20.394;2022-09-20T06:27:11;13.00;90.00
57410;DHT22;46044;44.738;20.394;2022-09-20T06:29:43;13.00;89.00
57410;DHT22;46044;44.738;20.394;2022-09-20T06:32:15;14.00;88.00
57410;DHT22;46044;44.738;20.394;2022-09-20T06:34:42;14.00;87.00
57410;DHT22;46044;44.738;20.394;2022-09-20T06:43:20;15.00;83.00
57410;DHT22;46044;44.738;20.394;2022-09-20T06:45:48;15.00;82.00
57410;DHT22;46044;44.738;20.394;2022-09-20T06:48:14;15.00;82.00
57410;DHT22;46044;44.738;20.394;2022-09-20T06:50:41;15.00;81.00
57410;DHT22;46044;44.738;20.394;2022-09-20T06:53:27;16.00;81.00
57410;DHT22;46044;44.738;20.394;2022-09-20T06:55:54;17.00;78.00
57410;DHT22;46044;44.738;20.394;2022-09-20T06:58:20;18.00;76.00
57410;DHT22;46044;44.738;20.394;2022-09-20T07:00:46;20.00;69.00
57410;DHT22;46044;44.738;20.394;2022-09-20T07:03:12;20.00;66.00
57410;DHT22;46044;44.738;20.394;2022-09-20T07:05:38;19.00;67.00
57410;DHT22;46044;44.738;20.394;2022-09-20T07:08:05;19.00;69.00
57410;DHT22;46044;44.738;20.394;2022-09-20T07:10:31;18.00;70.00
57410;DHT22;46044;44.738;20.394;2022-09-20T07:13:00;18.00;72.00
57410;DHT22;46044;44.738;20.394;2022-09-20T07:15:33;17.00;72.00
57410;DHT22;46044;44.738;20.394;2022-09-20T07:17:59;17.00;71.00
57410;DHT22;46044;44.738;20.394;2022-09-20T07:20:26;17.00;72.00
57410;DHT22;46044;44.738;20.394;2022-09-20T07:22:52;17.00;72.00
57410;DHT22;46044;44.738;20.394;2022-09-20T07:25:19;17.00;72.00
57410;DHT22;46044;44.738;20.394;2022-09-20T07:27:45;17.00;73.00
57410;DHT22;46044;44.738;20.394;2022-09-20T07:30:16;17.00;73.00
57410;DHT22;46044;44.738;20.394;2022-09-20T07:32:42;17.00;73.00
57410;DHT22;46044;44.738;20.394;2022-09-20T07:35:09;18.00;73.00
57410;DHT22;46044;44.738;20.394;2022-09-20T07:37:36;18.00;73.00
57410;DHT22;46044;44.738;20.394;2022-09-20T07:40:04;18.00;72.00
57410;DHT22;46044;44.738;20.394;2022-09-20T07:42:30;18.00;72.00
57410;DHT22;46044;44.738;20.394;2022-09-20T07:44:56;19.00;72.00
57410;DHT22;46044;44.738;20.394;2022-09-20T07:47:24;19.00;71.00
57410;DHT22;46044;44.738;20.394;2022-09-20T07:49:51;19.00;69.00
57410;DHT22;46044;44.738;20.394;2022-09-20T07:52:18;20.00;67.00
57410;DHT22;46044;44.738;20.394;2022-09-20T07:54:43;20.00;67.00
57410;DHT22;46044;44.738;20.394;2022-09-20T07:57:11;20.00;67.00
57410;DHT22;46044;44.738;20.394;2022-09-20T07:59:37;19.00;67.00
57410;DHT22;46044;44.738;20.394;2022-09-20T08:02:03;20.00;66.00
57410;DHT22;46044;44.738;20.394;2022-09-20T08:04:31;20.00;66.00
57410;DHT22;46044;44.738;20.394;2022-09-20T08:06:57;20.00;66.00
57410;DHT22;46044;44.738;20.394;2022-09-20T08:09:23;20.00;65.00
57410;DHT22;46044;44.738;20.394;2022-09-20T08:11:49;21.00;64.00
57410;DHT22;46044;44.738;20.394;2022-09-20T08:14:16;22.00;63.00
57410;DHT22;46044;44.738;20.394;2022-09-20T08:16:45;22.00;62.00
57410;DHT22;46044;44.738;20.394;2022-09-20T08:19:20;22.00;64.00
57410;DHT22;46044;44.738;20.394;2022-09-20T08:21:46;22.00;64.00
57410;DHT22;46044;44.738;20.394;2022-09-20T08:24:12;22.00;63.00
57410;DHT22;46044;44.738;20.394;2022-09-20T08:26:39;22.00;61.00
57410;DHT22;46044;44.738;20.394;2022-09-20T08:29:05;23.00;60.00
57410;DHT22;46044;44.738;20.394;2022-09-20T08:31:32;23.00;59.00
57410;DHT22;46044;44.738;20.394;2022-09-20T08:34:03;22.00;61.00
57410;DHT22;46044;44.738;20.394;2022-09-20T08:36:30;22.00;61.00
57410;DHT22;46044;44.738;20.394;2022-09-20T08:38:57;22.00;61.00
57410;DHT22;46044;44.738;20.394;2022-09-20T08:41:30;22.00;61.00
57410;DHT22;46044;44.738;20.394;2022-09-20T08:44:05;22.00;61.00
57410;DHT22;46044;44.738;20.394;2022-09-20T08:46:36;21.00;60.00
57410;DHT22;46044;44.738;20.394;2022-09-20T08:49:05;21.00;59.00
57410;DHT22;46044;44.738;20.394;2022-09-20T08:51:36;21.00;59.00
57410;DHT22;46044;44.738;20.394;2022-09-20T08:54:05;21.00;58.00
57410;DHT22;46044;44.738;20.394;2022-09-20T08:56:36;22.00;60.00
57410;DHT22;46044;44.738;20.394;2022-09-20T08:59:03;22.00;59.00
57410;DHT22;46044;44.738;20.394;2022-09-20T09:01:30;22.00;57.00
57410;DHT22;46044;44.738;20.394;2022-09-20T09:04:10;22.00;57.00
57410;DHT22;46044;44.738;20.394;2022-09-20T09:06:38;23.00;57.00
57410;DHT22;46044;44.738;20.394;2022-09-20T09:09:05;25.00;52.00
57410;DHT22;46044;44.738;20.394;2022-09-20T09:11:33;26.00;49.00
57410;DHT22;46044;44.738;20.394;2022-09-20T09:14:26;26.00;47.00
57410;DHT22;46044;44.738;20.394;2022-09-20T09:17:13;25.00;50.00
57410;DHT22;46044;44.738;20.394;2022-09-20T09:19:51;25.00;51.00
57410;DHT22;46044;44.738;20.394;2022-09-20T09:22:29;24.00;51.00
57410;DHT22;46044;44.738;20.394;2022-09-20T09:30:38;24.00;53.00
57410;DHT22;46044;44.738;20.394;2022-09-20T09:36:07;24.00;53.00
57410;DHT22;46044;44.738;20.394;2022-09-20T09:38:36;23.00;54.00
57410;DHT22;46044;44.738;20.394;2022-09-20T09:41:05;23.00;55.00
57410;DHT22;46044;44.738;20.394;2022-09-20T09:43:35;23.00;55.00
57410;DHT22;46044;44.738;20.394;2022-09-20T09:46:21;23.00;56.00
57410;DHT22;46044;44.738;20.394;2022-09-20T09:51:34;23.00;55.00
57410;DHT22;46044;44.738;20.394;2022-09-20T09:54:01;23.00;54.00
57410;DHT22;46044;44.738;20.394;2022-09-20T09:56:41;23.00;54.00
57410;DHT22;46044;44.738;20.394;2022-09-20T10:04:27;21.00;54.00
57410;DHT22;46044;44.738;20.394;2022-09-20T10:07:08;21.00;54.00
57410;DHT22;46044;44.738;20.394;2022-09-20T10:14:56;21.00;54.00
57410;DHT22;46044;44.738;20.394;2022-09-20T10:37:26;19.00;60.00
57410;DHT22;46044;44.738;20.394;2022-09-20T10:40:07;18.00;61.00
57410;DHT22;46044;44.738;20.394;2022-09-20T10:42:47;18.00;62.00
57410;DHT22;46044;44.738;20.394;2022-09-20T10:48:45;18.00;62.00
57410;DHT22;46044;44.738;20.394;2022-09-20T10:54:12;19.00;60.00
57410;DHT22;46044;44.738;20.394;2022-09-20T10:56:46;20.00;59.00
57410;DHT22;46044;44.738;20.394;2022-09-20T11:02:04;19.00;59.00
57410;DHT22;46044;44.738;20.394;2022-09-20T11:07:17;19.00;58.00
57410;DHT22;46044;44.738;20.394;2022-09-20T11:10:34;20.00;58.00
57410;DHT22;46044;44.738;20.394;2022-09-20T11:18:55;20.00;55.00
57410;DHT22;46044;44.738;20.394;2022-09-20T11:21:25;19.00;56.00
57410;DHT22;46044;44.738;20.394;2022-09-20T11:24:13;19.00;58.00
57410;DHT22;46044;44.738;20.394;2022-09-20T11:26:48;19.00;60.00
57410;DHT22;46044;44.738;20.394;2022-09-20T11:29:43;18.00;61.00
57410;DHT22;46044;44.738;20.394;2022-09-20T11:32:16;18.00;62.00
57410;DHT22;46044;44.738;20.394;2022-09-20T11:34:52;18.00;62.00
57410;DHT22;46044;44.738;20.394;2022-09-20T11:37:21;18.00;62.00
57410;DHT22;46044;44.738;20.394;2022-09-20T11:39:55;18.00;62.00
57410;DHT22;46044;44.738;20.394;2022-09-20T11:42:28;18.00;61.00
57410;DHT22;46044;44.738;20.394;2022-09-20T11:44:55;18.00;61.00
57410;DHT22;46044;44.738;20.394;2022-09-20T11:47:29;18.00;60.00
57410;DHT22;46044;44.738;20.394;2022-09-20T11:53:14;18.00;60.00
57410;DHT22;46044;44.738;20.394;2022-09-20T11:56:13;18.00;60.00
57410;DHT22;46044;44.738;20.394;2022-09-20T11:58:46;19.00;59.00
57410;DHT22;46044;44.738;20.394;2022-09-20T12:01:20;19.00;58.00
57410;DHT22;46044;44.738;20.394;2022-09-20T12:03:52;20.00;57.00
57410;DHT22;46044;44.738;20.394;2022-09-20T12:06:33;20.00;56.00
57410;DHT22;46044;44.738;20.394;2022-09-20T12:09:05;20.00;55.00
57410;DHT22;46044;44.738;20.394;2022-09-20T12:11:33;19.00;55.00
57410;DHT22;46044;44.738;20.394;2022-09-20T12:14:06;19.00;54.00
57410;DHT22;46044;44.738;20.394;2022-09-20T12:16:41;19.00;54.00
57410;DHT22;46044;44.738;20.394;2022-09-20T12:19:12;19.00;54.00
57410;DHT22;46044;44.738;20.394;2022-09-20T12:24:43;19.00;55.00
57410;DHT22;46044;44.738;20.394;2022-09-20T12:30:19;19.00;55.00
57410;DHT22;46044;44.738;20.394;2022-09-20T12:32:48;19.00;55.00
57410;DHT22;46044;44.738;20.394;2022-09-20T12:38:29;19.00;54.00
57410;DHT22;46044;44.738;20.394;2022-09-20T12:41:10;19.00;55.00
57410;DHT22;46044;44.738;20.394;2022-09-20T12:43:59;19.00;56.00
57410;DHT22;46044;44.738;20.394;2022-09-20T12:46:37;19.00;57.00
57410;DHT22;46044;44.738;20.394;2022-09-20T13:00:50;18.00;60.00
57410;DHT22;46044;44.738;20.394;2022-09-20T13:08:50;19.00;60.00
57410;DHT22;46044;44.738;20.394;2022-09-20T13:11:44;19.00;59.00
57410;DHT22;46044;44.738;20.394;2022-09-20T13:19:11;19.00;57.00
57410;DHT22;46044;44.738;20.394;2022-09-20T13:21:44;19.00;57.00
57410;DHT22;46044;44.738;20.394;2022-09-20T13:24:17;18.00;58.00
57410;DHT22;46044;44.738;20.394;2022-09-20T13:26:46;18.00;58.00
57410;DHT22;46044;44.738;20.394;2022-09-20T13:29:29;18.00;58.00
57410;DHT22;46044;44.738;20.394;2022-09-20T13:34:43;18.00;59.00
57410;DHT22;46044;44.738;20.394;2022-09-20T13:37:18;18.00;59.00
57410;DHT22;46044;44.738;20.394;2022-09-20T13:39:46;18.00;59.00
57410;DHT22;46044;44.738;20.394;2022-09-20T13:42:17;18.00;59.00
57410;DHT22;46044;44.738;20.394;2022-09-20T13:44:47;18.00;59.00
57410;DHT22;46044;44.738;20.394;2022-09-20T13:47:26;18.00;60.00
57410;DHT22;46044;44.738;20.394;2022-09-20T13:50:09;18.00;60.00
57410;DHT22;46044;44.738;20.394;2022-09-20T13:52:45;18.00;60.00
57410;DHT22;46044;44.738;20.394;2022-09-20T13:55:30;18.00;60.00
57410;DHT22;46044;44.738;20.394;2022-09-20T13:58:06;18.00;60.00
57410;DHT22;46044;44.738;20.394;2022-09-20T14:00:35;18.00;60.00
57410;DHT22;46044;44.738;20.394;2022-09-20T14:03:03;18.00;60.00
57410;DHT22;46044;44.738;20.394;2022-09-20T14:05:30;18.00;60.00
57410;DHT22;46044;44.738;20.394;2022-09-20T14:07:58;18.00;61.00
57410;DHT22;46044;44.738;20.394;2022-09-20T14:10:42;18.00;61.00
57410;DHT22;46044;44.738;20.394;2022-09-20T14:13:16;17.00;60.00
57410;DHT22;46044;44.738;20.394;2022-09-20T14:15:44;17.00;61.00
57410;DHT22;46044;44.738;20.394;2022-09-20T14:18:14;17.00;62.00
57410;DHT22;46044;44.738;20.394;2022-09-20T14:20:43;16.00;65.00
57410;DHT22;46044;44.738;20.394;2022-09-20T14:23:27;16.00;68.00
57410;DHT22;46044;44.738;20.394;2022-09-20T14:28:42;16.00;71.00
57410;DHT22;46044;44.738;20.394;2022-09-20T14:31:13;15.00;71.00
57410;DHT22;46044;44.738;20.394;2022-09-20T14:33:45;15.00;72.00
57410;DHT22;46044;44.738;20.394;2022-09-20T14:36:14;15.00;73.00
57410;DHT22;46044;44.738;20.394;2022-09-20T14:38:43;15.00;72.00
57410;DHT22;46044;44.738;20.394;2022-09-20T14:41:12;15.00;72.00
57410;DHT22;46044;44.738;20.394;2022-09-20T14:43:39;15.00;73.00
57410;DHT22;46044;44.738;20.394;2022-09-20T14:46:16;15.00;74.00
57410;DHT22;46044;44.738;20.394;2022-09-20T14:48:42;16.00;75.00
57410;DHT22;46044;44.738;20.394;2022-09-20T14:51:17;16.00;76.00
57410;DHT22;46044;44.738;20.394;2022-09-20T14:53:51;16.00;77.00
57410;DHT22;46044;44.738;20.394;2022-09-20T14:56:39;16.00;77.00
57410;DHT22;46044;44.738;20.394;2022-09-20T14:59:27;15.00;77.00
57410;DHT22;46044;44.738;20.394;2022-09-20T15:02:14;15.00;77.00
57410;DHT22;46044;44.738;20.394;2022-09-20T15:04:42;15.00;78.00
57410;DHT22;46044;44.738;20.394;2022-09-20T15:07:17;15.00;78.00
57410;DHT22;46044;44.738;20.394;2022-09-20T15:09:43;15.00;78.00
57410;DHT22;46044;44.738;20.394;2022-09-20T15:12:15;15.00;78.00
57410;DHT22;46044;44.738;20.394;2022-09-20T15:14:42;15.00;78.00
57410;DHT22;46044;44.738;20.394;2022-09-20T15:17:19;15.00;79.00
57410;DHT22;46044;44.738;20.394;2022-09-20T15:19:47;15.00;79.00
57410;DHT22;46044;44.738;20.394;2022-09-20T15:22:13;15.00;79.00
57410;DHT22;46044;44.738;20.394;2022-09-20T15:24:40;15.00;80.00
57410;DHT22;46044;44.738;20.394;2022-09-20T15:27:06;15.00;80.00
57410;DHT22;46044;44.738;20.394;2022-09-20T15:29:34;15.00;81.00
57410;DHT22;46044;44.738;20.394;2022-09-20T15:32:00;15.00;81.00
57410;DHT22;46044;44.738;20.394;2022-09-20T15:34:28;15.00;81.00
57410;DHT22;46044;44.738;20.394;2022-09-20T15:36:53;15.00;82.00
57410;DHT22;46044;44.738;20.394;2022-09-20T15:39:20;15.00;82.00
57410;DHT22;46044;44.738;20.394;2022-09-20T15:41:47;14.00;83.00
57410;DHT22;46044;44.738;20.394;2022-09-20T15:44:14;14.00;84.00
57410;DHT22;46044;44.738;20.394;2022-09-20T15:46:41;14.00;84.00
57410;DHT22;46044;44.738;20.394;2022-09-20T15:49:10;14.00;84.00
57410;DHT22;46044;44.738;20.394;2022-09-20T15:51:37;14.00;84.00
57410;DHT22;46044;44.738;20.394;2022-09-20T15:54:05;14.00;84.00
57410;DHT22;46044;44.738;20.394;2022-09-20T15:56:36;14.00;84.00
57410;DHT22;46044;44.738;20.394;2022-09-20T15:59:05;14.00;84.00
57410;DHT22;46044;44.738;20.394;2022-09-20T16:01:42;14.00;85.00
57410;DHT22;46044;44.738;20.394;2022-09-20T16:04:16;14.00;85.00
57410;DHT22;46044;44.738;20.394;2022-09-20T16:06:45;14.00;85.00
57410;DHT22;46044;44.738;20.394;2022-09-20T16:09:13;14.00;85.00
57410;DHT22;46044;44.738;20.394;2022-09-20T16:11:39;14.00;86.00
57410;DHT22;46044;44.738;20.394;2022-09-20T16:14:06;13.00;86.00
57410;DHT22;46044;44.738;20.394;2022-09-20T16:16:33;13.00;86.00
57410;DHT22;46044;44.738;20.394;2022-09-20T16:18:59;13.00;87.00
57410;DHT22;46044;44.738;20.394;2022-09-20T16:21:46;13.00;87.00
57410;DHT22;46044;44.738;20.394;2022-09-20T16:24:15;13.00;87.00
57410;DHT22;46044;44.738;20.394;2022-09-20T16:26:42;13.00;87.00
57410;DHT22;46044;44.738;20.394;2022-09-20T16:29:16;13.00;88.00
57410;DHT22;46044;44.738;20.394;2022-09-20T16:31:44;13.00;88.00
57410;DHT22;46044;44.738;20.394;2022-09-20T16:36:49;13.00;89.00
57410;DHT22;46044;44.738;20.394;2022-09-20T16:39:17;13.00;89.00
57410;DHT22;46044;44.738;20.394;2022-09-20T16:41:45;12.00;89.00
57410;DHT22;46044;44.738;20.394;2022-09-20T16:44:12;13.00;90.00
57410;DHT22;46044;44.738;20.394;2022-09-20T16:46:39;13.00;90.00
57410;DHT22;46044;44.738;20.394;2022-09-20T16:49:07;12.00;88.00
57410;DHT22;46044;44.738;20.394;2022-09-20T16:51:39;12.00;89.00
57410;DHT22;46044;44.738;20.394;2022-09-20T16:54:15;12.00;89.00
57410;DHT22;46044;44.738;20.394;2022-09-20T16:56:47;12.00;90.00
57410;DHT22;46044;44.738;20.394;2022-09-20T16:59:15;12.00;90.00
57410;DHT22;46044;44.738;20.394;2022-09-20T17:01:42;12.00;90.00
57410;DHT22;46044;44.738;20.394;2022-09-20T17:04:09;12.00;90.00
57410;DHT22;46044;44.738;20.394;2022-09-20T17:06:38;12.00;90.00
57410;DHT22;46044;44.738;20.394;2022-09-20T17:09:06;12.00;90.00
57410;DHT22;46044;44.738;20.394;2022-09-20T17:11:35;12.00;90.00
57410;DHT22;46044;44.738;20.394;2022-09-20T17:14:02;11.00;89.00
57410;DHT22;46044;44.738;20.394;2022-09-20T17:16:30;11.00;89.00
57410;DHT22;46044;44.738;20.394;2022-09-20T17:19:07;11.00;89.00
57410;DHT22;46044;44.738;20.394;2022-09-20T17:21:42;11.00;89.00
57410;DHT22;46044;44.738;20.394;2022-09-20T17:24:14;11.00;89.00
57410;DHT22;46044;44.738;20.394;2022-09-20T17:26:42;11.00;89.00
57410;DHT22;46044;44.738;20.394;2022-09-20T17:29:12;11.00;89.00
57410;DHT22;46044;44.738;20.394;2022-09-20T17:31:44;11.00;88.00
57410;DHT22;46044;44.738;20.394;2022-09-20T17:34:13;11.00;89.00
57410;DHT22;46044;44.738;20.394;2022-09-20T17:36:42;11.00;89.00
57410;DHT22;46044;44.738;20.394;2022-09-20T17:39:10;11.00;89.00
57410;DHT22;46044;44.738;20.394;2022-09-20T17:41:42;11.00;89.00
57410;DHT22;46044;44.738;20.394;2022-09-20T17:44:09;11.00;89.00
57410;DHT22;46044;44.738;20.394;2022-09-20T17:46:38;11.00;89.00
57410;DHT22;46044;44.738;20.394;2022-09-20T17:49:06;10.00;88.00
57410;DHT22;46044;44.738;20.394;2022-09-20T17:51:37;11.00;89.00
57410;DHT22;46044;44.738;20.394;2022-09-20T17:54:06;11.00;89.00
57410;DHT22;46044;44.738;20.394;2022-09-20T17:56:33;10.00;88.00
57410;DHT22;46044;44.738;20.394;2022-09-20T17:59:01;11.00;89.00
57410;DHT22;46044;44.738;20.394;2022-09-20T18:01:32;11.00;89.00
57410;DHT22;46044;44.738;20.394;2022-09-20T18:04:01;11.00;89.00
57410;DHT22;46044;44.738;20.394;2022-09-20T18:06:31;11.00;89.00
57410;DHT22;46044;44.738;20.394;2022-09-20T18:09:01;10.00;88.00
57410;DHT22;46044;44.738;20.394;2022-09-20T18:11:30;10.00;88.00
57410;DHT22;46044;44.738;20.394;2022-09-20T18:14:04;10.00;88.00
57410;DHT22;46044;44.738;20.394;2022-09-20T18:16:31;10.00;88.00
57410;DHT22;46044;44.738;20.394;2022-09-20T18:18:58;10.00;88.00
57410;DHT22;46044;44.738;20.394;2022-09-20T18:21:29;10.00;88.00
57410;DHT22;46044;44.738;20.394;2022-09-20T18:23:55;10.00;88.00
57410;DHT22;46044;44.738;20.394;2022-09-20T18:26:24;10.00;88.00
57410;DHT22;46044;44.738;20.394;2022-09-20T18:29:07;10.00;88.00
57410;DHT22;46044;44.738;20.394;2022-09-20T18:31:36;10.00;88.00
57410;DHT22;46044;44.738;20.394;2022-09-20T18:34:04;10.00;88.00
57410;DHT22;46044;44.738;20.394;2022-09-20T18:36:32;10.00;88.00
57410;DHT22;46044;44.738;20.394;2022-09-20T18:39:01;10.00;88.00
57410;DHT22;46044;44.738;20.394;2022-09-20T18:41:30;10.00;88.00
57410;DHT22;46044;44.738;20.394;2022-09-20T18:44:04;10.00;88.00
57410;DHT22;46044;44.738;20.394;2022-09-20T18:46:31;10.00;88.00
57410;DHT22;46044;44.738;20.394;2022-09-20T18:49:00;10.00;88.00
57410;DHT22;46044;44.738;20.394;2022-09-20T18:51:29;10.00;88.00
57410;DHT22;46044;44.738;20.394;2022-09-20T18:53:58;9.00;88.00
57410;DHT22;46044;44.738;20.394;2022-09-20T18:58:52;9.00;88.00
57410;DHT22;46044;44.738;20.394;2022-09-20T19:06:32;10.00;88.00
57410;DHT22;46044;44.738;20.394;2022-09-20T19:09:14;10.00;88.00
57410;DHT22;46044;44.738;20.394;2022-09-20T19:11:48;10.00;88.00
57410;DHT22;46044;44.738;20.394;2022-09-20T19:14:26;10.00;88.00
57410;DHT22;46044;44.738;20.394;2022-09-20T19:16:59;10.00;88.00
57410;DHT22;46044;44.738;20.394;2022-09-20T19:27:17;9.00;88.00
57410;DHT22;46044;44.738;20.394;2022-09-20T19:29:44;9.00;88.00
57410;DHT22;46044;44.738;20.394;2022-09-20T19:32:15;9.00;88.00
57410;DHT22;46044;44.738;20.394;2022-09-20T19:34:44;9.00;88.00
57410;DHT22;46044;44.738;20.394;2022-09-20T19:40:26;9.00;88.00
57410;DHT22;46044;44.738;20.394;2022-09-20T19:46:33;9.00;88.00
57410;DHT22;46044;44.738;20.394;2022-09-20T19:48:39;9.00;88.00
57410;DHT22;46044;44.738;20.394;2022-09-20T19:51:11;9.00;88.00
57410;DHT22;46044;44.738;20.394;2022-09-20T19:53:37;9.00;88.00
57410;DHT22;46044;44.738;20.394;2022-09-20T19:56:23;9.00;88.00
57410;DHT22;46044;44.738;20.394;2022-09-20T19:58:51;9.00;88.00
57410;DHT22;46044;44.738;20.394;2022-09-20T20:01:23;9.00;88.00
57410;DHT22;46044;44.738;20.394;2022-09-20T20:03:50;9.00;88.00
57410;DHT22;46044;44.738;20.394;2022-09-20T20:09:15;9.00;88.00
57410;DHT22;46044;44.738;20.394;2022-09-20T20:17:52;9.00;88.00
57410;DHT22;46044;44.738;20.394;2022-09-20T20:23:18;9.00;88.00
57410;DHT22;46044;44.738;20.394;2022-09-20T20:26:20;8.00;88.00
57410;DHT22;46044;44.738;20.394;2022-09-20T20:28:47;8.00;88.00
57410;DHT22;46044;44.738;20.394;2022-09-20T20:31:19;8.00;88.00
57410;DHT22;46044;44.738;20.394;2022-09-20T20:33:52;8.00;88.00
57410;DHT22;46044;44.738;20.394;2022-09-20T20:36:19;8.00;88.00
57410;DHT22;46044;44.738;20.394;2022-09-20T20:38:46;9.00;88.00
57410;DHT22;46044;44.738;20.394;2022-09-20T20:41:20;9.00;88.00
57410;DHT22;46044;44.738;20.394;2022-09-20T20:43:52;9.00;88.00
57410;DHT22;46044;44.738;20.394;2022-09-20T20:46:22;9.00;88.00
57410;DHT22;46044;44.738;20.394;2022-09-20T20:48:48;9.00;88.00
57410;DHT22;46044;44.738;20.394;2022-09-20T20:51:19;9.00;88.00
57410;DHT22;46044;44.738;20.394;2022-09-20T20:53:51;9.00;88.00
57410;DHT22;46044;44.738;20.394;2022-09-20T20:58:45;9.00;88.00
57410;DHT22;46044;44.738;20.394;2022-09-20T21:03:51;9.00;88.00
57410;DHT22;46044;44.738;20.394;2022-09-20T21:06:18;9.00;88.00
57410;DHT22;46044;44.738;20.394;2022-09-20T21:08:46;9.00;88.00
57410;DHT22;46044;44.738;20.394;2022-09-20T21:11:24;9.00;88.00
57410;DHT22;46044;44.738;20.394;2022-09-20T21:13:53;9.00;88.00
57410;DHT22;46044;44.738;20.394;2022-09-20T21:16:21;9.00;88.00
57410;DHT22;46044;44.738;20.394;2022-09-20T21:18:49;9.00;88.00
57410;DHT22;46044;44.738;20.394;2022-09-20T21:23:43;9.00;88.00